createdAt,value
2023-04-10T00:02:54.903Z,3.07
2023-04-10T00:07:59.673Z,3.03
2023-04-10T00:13:03.703Z,3.11
2023-04-10T00:18:06.745Z,3.10
2023-04-10T00:23:10.847Z,3.03
2023-04-10T00:28:14.371Z,2.88
2023-04-10T00:33:17.130Z,2.85
2023-04-10T00:38:21.417Z,2.78
2023-04-10T00:43:24.404Z,2.64
2023-04-10T00:48:27.591Z,2.65
2023-04-10T00:53:32.496Z,2.62
2023-04-10T00:58:35.365Z,2.58
2023-04-10T01:03:39.446Z,2.54
2023-04-10T01:08:54.230Z,2.56
2023-04-10T01:14:06.530Z,2.49
2023-04-10T01:19:20.685Z,2.53
2023-04-10T01:24:43.624Z,2.43
2023-04-10T01:29:53.542Z,2.49
2023-04-10T01:34:58.344Z,2.47
2023-04-10T01:40:04.301Z,2.44
2023-04-10T01:45:14.722Z,2.34
2023-04-10T01:50:19.081Z,2.33
2023-04-10T01:55:23.200Z,2.41
2023-04-10T02:00:38.834Z,2.46
2023-04-10T02:05:49.859Z,2.54
2023-04-10T02:10:57.310Z,2.51
2023-04-10T02:16:06.223Z,2.49
2023-04-10T02:21:09.832Z,2.47
2023-04-10T02:26:12.626Z,2.42
2023-04-10T02:31:17.646Z,2.40
2023-04-10T02:36:20.365Z,2.40
2023-04-10T02:41:24.378Z,2.42
2023-04-10T02:46:29.739Z,2.38
2023-04-10T02:51:36.383Z,2.40
2023-04-10T02:56:40.117Z,2.43
2023-04-10T03:01:44.615Z,2.50
2023-04-10T03:06:47.378Z,2.57
2023-04-10T03:11:50.166Z,2.63
2023-04-10T03:16:54.441Z,2.64
2023-04-10T03:21:57.399Z,2.69
2023-04-10T03:27:00.288Z,2.74
2023-04-10T03:32:04.685Z,2.78
2023-04-10T03:37:09.718Z,2.78
2023-04-10T03:42:13.746Z,2.79
2023-04-10T03:47:17.916Z,2.81
2023-04-10T03:52:24.711Z,2.82
2023-04-10T03:57:28.783Z,2.82
2023-04-10T04:02:39.614Z,2.83
2023-04-10T04:07:42.688Z,2.83
2023-04-10T04:13:11.544Z,2.81
2023-04-10T04:18:41.819Z,2.83
2023-04-10T04:24:05.216Z,2.80
2023-04-10T04:29:31.000Z,2.78
2023-04-10T04:34:46.323Z,2.73
2023-04-10T04:40:10.110Z,2.69
2023-04-10T04:45:42.325Z,2.65
2023-04-10T04:51:07.614Z,2.68
2023-04-10T04:56:39.053Z,2.72
2023-04-10T05:01:44.622Z,2.75
2023-04-10T05:07:08.796Z,2.76
2023-04-10T05:12:45.911Z,2.83
2023-04-10T05:17:59.615Z,2.79
2023-04-10T05:23:30.348Z,2.84
2023-04-10T05:28:52.759Z,2.97
2023-04-10T05:34:08.205Z,3.02
2023-04-10T05:39:23.681Z,3.16
2023-04-10T05:44:45.749Z,3.34
2023-04-10T05:50:03.106Z,3.55
2023-04-10T05:55:19.678Z,3.75
2023-04-10T06:00:41.841Z,3.99
2023-04-10T06:06:13.913Z,4.24
2023-04-10T06:11:18.329Z,4.63
2023-04-10T06:16:26.807Z,4.91
2023-04-10T06:21:30.694Z,5.30
2023-04-10T06:26:34.967Z,5.64
2023-04-10T06:31:39.272Z,6.06
2023-04-10T06:36:43.885Z,6.24
2023-04-10T06:41:48.250Z,6.67
2023-04-10T06:47:06.992Z,7.23
2023-04-10T06:52:11.309Z,7.47
2023-04-10T06:57:16.056Z,7.82
2023-04-10T07:02:19.074Z,8.08
2023-04-10T07:07:21.859Z,8.29
2023-04-10T07:12:26.552Z,8.39
2023-04-10T07:17:29.598Z,8.78
2023-04-10T07:22:33.262Z,8.98
2023-04-10T07:27:39.233Z,9.31
2023-04-10T07:32:42.563Z,9.53
2023-04-10T07:37:46.579Z,9.81
2023-04-10T07:42:53.800Z,9.60
2023-04-10T07:47:58.384Z,10.02
2023-04-10T07:53:03.626Z,10.41
2023-04-10T07:58:09.756Z,10.52
2023-04-10T08:03:13.358Z,11.16
2023-04-10T08:08:16.956Z,11.39
2023-04-10T08:13:22.724Z,11.80
2023-04-10T08:18:26.571Z,12.02
2023-04-10T08:23:29.324Z,11.89
2023-04-10T08:28:34.016Z,11.98
2023-04-10T08:33:37.598Z,12.29
2023-04-10T08:38:41.777Z,12.42
2023-04-10T08:43:49.617Z,12.91
2023-04-10T08:49:00.410Z,13.13
2023-04-10T08:54:08.017Z,13.10
2023-04-10T08:59:12.089Z,12.90
2023-04-10T09:04:17.157Z,12.44
2023-04-10T09:09:20.773Z,12.68
2023-04-10T09:14:25.928Z,12.56
2023-04-10T09:19:31.871Z,12.73
2023-04-10T09:24:38.778Z,13.26
2023-04-10T09:29:45.875Z,13.64
2023-04-10T09:34:59.063Z,13.70
2023-04-10T09:40:02.449Z,13.73
2023-04-10T09:45:07.725Z,14.13
2023-04-10T09:50:10.514Z,14.08
2023-04-10T09:55:18.241Z,14.14
2023-04-10T10:00:23.065Z,14.32
2023-04-10T10:05:31.096Z,14.95
2023-04-10T10:10:34.371Z,15.10
2023-04-10T10:15:46.001Z,15.17
2023-04-10T10:20:50.351Z,14.95
2023-04-10T10:25:55.922Z,15.28
2023-04-10T10:31:01.067Z,15.38
2023-04-10T10:36:04.768Z,15.94
2023-04-10T10:41:15.358Z,15.71
2023-04-10T10:46:26.731Z,15.94
2023-04-10T10:51:46.838Z,15.49
2023-04-10T10:56:50.515Z,16.06
2023-04-10T11:02:19.218Z,15.86
2023-04-10T11:07:22.392Z,15.82
2023-04-10T11:12:26.238Z,16.28
2023-04-10T11:17:51.431Z,15.74
2023-04-10T11:23:12.327Z,15.73
2023-04-10T11:28:35.461Z,15.97
2023-04-10T11:33:39.797Z,16.40
2023-04-10T11:38:42.655Z,16.22
2023-04-10T11:43:46.296Z,16.65
2023-04-10T11:48:54.118Z,17.45
2023-04-10T11:54:08.091Z,17.71
2023-04-10T11:59:13.319Z,18.05
2023-04-10T12:04:19.188Z,18.53
2023-04-10T12:09:23.124Z,18.15
2023-04-10T12:14:31.172Z,18.24
2023-04-10T12:19:37.592Z,18.73
2023-04-10T12:24:44.884Z,18.77
2023-04-10T12:29:49.958Z,18.24
2023-04-10T12:34:57.183Z,18.35
2023-04-10T12:40:08.433Z,17.88
2023-04-10T12:45:13.998Z,17.34
2023-04-10T12:50:21.429Z,17.12
2023-04-10T12:55:24.241Z,17.10
2023-04-10T13:00:27.314Z,17.25
2023-04-10T13:05:31.382Z,17.43
2023-04-10T13:10:34.141Z,17.99
2023-04-10T13:15:36.833Z,17.36
2023-04-10T13:20:42.015Z,17.13
2023-04-10T13:25:44.988Z,17.95
2023-04-10T13:30:50.264Z,17.36
2023-04-10T13:35:55.206Z,17.74
2023-04-10T13:40:58.876Z,17.76
2023-04-10T13:46:01.728Z,17.61
2023-04-10T13:51:07.284Z,17.78
2023-04-10T13:56:10.854Z,17.99
2023-04-10T14:01:13.689Z,18.28
2023-04-10T14:06:17.976Z,18.25
2023-04-10T14:11:21.593Z,18.85
2023-04-10T14:16:24.339Z,18.72
2023-04-10T14:21:31.050Z,18.71
2023-04-10T14:26:34.290Z,18.39
2023-04-10T14:31:44.173Z,17.94
2023-04-10T14:36:59.608Z,17.72
2023-04-10T14:42:03.267Z,17.52
2023-04-10T14:47:06.534Z,17.93
2023-04-10T14:52:13.444Z,17.96
2023-04-10T14:57:17.337Z,17.49
2023-04-10T15:02:20.242Z,17.18
2023-04-10T15:07:25.527Z,17.42
2023-04-10T15:12:28.372Z,17.47
2023-04-10T15:17:31.437Z,17.49
2023-04-10T15:22:35.789Z,17.55
2023-04-10T15:27:39.070Z,17.77
2023-04-10T15:32:41.920Z,17.84
2023-04-10T15:37:46.087Z,17.61
2023-04-10T15:42:49.410Z,17.06
2023-04-10T15:47:53.993Z,16.91
2023-04-10T15:52:58.067Z,16.68
2023-04-10T15:58:02.532Z,16.44
2023-04-10T16:03:05.899Z,16.33
2023-04-10T16:08:13.401Z,16.34
2023-04-10T16:13:16.153Z,16.30
2023-04-10T16:18:20.641Z,16.25
2023-04-10T16:23:24.698Z,16.19
2023-04-10T16:28:28.199Z,16.11
2023-04-10T16:33:32.371Z,16.16
2023-04-10T16:38:36.561Z,16.26
2023-04-10T16:43:39.531Z,16.24
2023-04-10T16:48:43.667Z,16.19
2023-04-10T16:53:47.752Z,16.13
2023-04-10T16:58:51.484Z,15.95
2023-04-10T17:03:55.578Z,15.88
2023-04-10T17:09:01.894Z,15.77
2023-04-10T17:14:05.883Z,15.51
2023-04-10T17:19:09.065Z,15.49
2023-04-10T17:24:13.568Z,15.37
2023-04-10T17:29:19.600Z,15.29
2023-04-10T17:34:22.369Z,15.15
2023-04-10T17:39:27.155Z,15.04
2023-04-10T17:44:30.007Z,14.98
2023-04-10T17:49:32.875Z,14.88
2023-04-10T17:54:37.571Z,14.86
2023-04-10T17:59:40.668Z,14.77
2023-04-10T18:04:44.121Z,14.73
2023-04-10T18:09:48.351Z,14.65
2023-04-10T18:14:51.446Z,14.62
2023-04-10T18:19:56.101Z,14.52
2023-04-10T18:25:00.939Z,14.42
2023-04-10T18:30:04.056Z,14.37
2023-04-10T18:35:08.121Z,14.32
2023-04-10T18:40:16.758Z,14.26
2023-04-10T18:45:20.624Z,14.24
2023-04-10T18:50:23.556Z,14.16
2023-04-10T18:55:27.658Z,14.07
2023-04-10T19:00:31.978Z,13.91
2023-04-10T19:05:34.691Z,13.68
2023-04-10T19:10:39.602Z,13.50
2023-04-10T19:15:43.651Z,13.45
2023-04-10T19:20:50.519Z,13.42
2023-04-10T19:25:58.531Z,13.38
2023-04-10T19:31:01.589Z,13.29
2023-04-10T19:36:06.836Z,13.23
2023-04-10T19:41:16.117Z,13.22
2023-04-10T19:46:19.371Z,13.19
2023-04-10T19:51:22.235Z,13.22
2023-04-10T19:56:26.935Z,13.22
2023-04-10T20:01:30.656Z,13.17
2023-04-10T20:06:34.282Z,13.20
2023-04-10T20:11:38.799Z,13.15
2023-04-10T20:16:42.312Z,13.11
2023-04-10T20:21:45.197Z,13.14
2023-04-10T20:26:49.270Z,13.10
2023-04-10T20:31:53.843Z,13.08
2023-04-10T20:36:56.630Z,13.05
2023-04-10T20:42:01.294Z,13.07
2023-04-10T20:47:06.187Z,13.06
2023-04-10T20:52:09.395Z,13.02
2023-04-10T20:57:13.641Z,12.99
2023-04-10T21:02:18.112Z,12.89
2023-04-10T21:07:21.338Z,12.77
2023-04-10T21:12:25.747Z,12.67
2023-04-10T21:17:31.489Z,12.57
2023-04-10T21:22:34.641Z,12.41
2023-04-10T21:27:38.903Z,12.18
2023-04-10T21:32:42.051Z,11.98
2023-04-10T21:37:44.908Z,11.79
2023-04-10T21:42:49.618Z,11.63
2023-04-10T21:47:52.668Z,11.54
2023-04-10T21:52:55.565Z,11.45
2023-04-10T21:57:59.828Z,11.29
2023-04-10T22:03:02.814Z,11.18
2023-04-10T22:08:06.199Z,11.05
2023-04-10T22:13:12.296Z,10.92
2023-04-10T22:18:19.859Z,10.78
2023-04-10T22:23:24.180Z,10.65
2023-04-10T22:28:28.541Z,10.54
2023-04-10T22:33:32.724Z,10.24
2023-04-10T22:38:35.495Z,9.92
2023-04-10T22:43:39.580Z,9.65
2023-04-10T22:48:42.320Z,9.39
2023-04-10T22:53:45.003Z,9.32
2023-04-10T22:58:49.105Z,9.26
2023-04-10T23:03:53.804Z,9.19
2023-04-10T23:08:56.988Z,9.19
2023-04-10T23:14:01.337Z,9.06
2023-04-10T23:19:04.184Z,9.09
2023-04-10T23:24:07.496Z,9.04
2023-04-10T23:29:11.629Z,9.04
2023-04-10T23:34:14.421Z,8.98
2023-04-10T23:39:17.193Z,9.04
2023-04-10T23:44:21.342Z,8.89
2023-04-10T23:49:24.339Z,8.90
2023-04-10T23:54:27.303Z,8.91
2023-04-10T23:59:31.496Z,8.86
